Time;durP1;ratioP1;P1;durP2;ratioP2;P2;SDS_P1;SDS_P2;PMS_P1;PMS_P2;Temp;Humidity;BMP_temperature;BMP_pressure;BME280_temperature;BME280_humidity;BME280_pressure;Samples;Min_cycle;Max_cycle;Signal;HPM_P1;HPM_P2
2023/05/31 00:02:14;;;;;;;1.73;0.90;;;;;;;;;;5065263;27;91769;-79
2023/05/31 00:04:41;;;;;;;2.50;1.05;;;;;;;;;;5064543;27;92206;-79
2023/05/31 00:07:07;;;;;;;1.77;1.20;;;;;;;;;;5062716;27;92439;-79
2023/05/31 00:09:34;;;;;;;1.60;0.80;;;;;;;;;;5074447;27;94563;-79
2023/05/31 00:12:00;;;;;;;1.70;1.00;;;;;;;;;;5083557;27;94774;-79
2023/05/31 00:14:27;;;;;;;2.22;0.90;;;;;;;;;;5070652;27;93363;-78
2023/05/31 00:16:53;;;;;;;1.65;0.90;;;;;;;;;;5063741;27;92441;-78
2023/05/31 00:19:40;;;;;;;2.33;1.15;;;;;;;;;;5070362;27;93051;-79
2023/05/31 00:22:07;;;;;;;2.08;1.05;;;;;;;;;;5084398;27;91998;-78
2023/05/31 00:24:33;;;;;;;1.20;0.90;;;;;;;;;;5070997;27;93722;-79
2023/05/31 00:27:00;;;;;;;1.77;1.00;;;;;;;;;;5064756;27;92018;-79
2023/05/31 00:29:28;;;;;;;2.13;1.02;;;;;;;;;;5081634;27;92091;-79
2023/05/31 00:31:55;;;;;;;2.28;1.10;;;;;;;;;;5064026;27;92407;-78
2023/05/31 00:34:22;;;;;;;1.15;0.80;;;;;;;;;;5074566;27;95439;-78
2023/05/31 00:36:48;;;;;;;2.03;0.90;;;;;;;;;;5064977;27;92449;-78
2023/05/31 00:39:15;;;;;;;1.38;0.98;;;;;;;;;;5062228;27;93999;-79
2023/05/31 00:41:41;;;;;;;1.70;1.05;;;;;;;;;;5075083;27;95095;-79
2023/05/31 00:44:07;;;;;;;1.98;0.98;;;;;;;;;;5076944;27;92123;-80
2023/05/31 00:46:36;;;;;;;1.20;0.80;;;;;;;;;;5063680;27;93509;-80
2023/05/31 00:49:03;;;;;;;2.05;1.00;;;;;;;;;;5070308;27;92211;-79
2023/05/31 00:51:31;;;;;;;2.00;1.00;;;;;;;;;;5084161;27;91689;-80
2023/05/31 00:53:58;;;;;;;1.27;0.90;;;;;;;;;;5084687;27;92666;-79
2023/05/31 00:56:25;;;;;;;1.25;0.95;;;;;;;;;;5072877;27;92260;-80
2023/05/31 00:58:52;;;;;;;;;;;;;;;;;;5075100;27;95070;-80
2023/05/31 01:01:20;;;;;;;1.35;0.88;;;;;;;;;;5065242;27;92344;-80
2023/05/31 01:03:46;;;;;;;1.73;0.90;;;;;;;;;;5045263;27;94369;-79
2023/05/31 01:06:13;;;;;;;2.15;1.08;;;;;;;;;;5068612;27;93289;-79
2023/05/31 01:08:40;;;;;;;2.05;0.85;;;;;;;;;;5063562;27;92466;-80
2023/05/31 01:11:11;;;;;;;1.20;0.90;;;;;;;;;;5051546;27;95996;-80
2023/05/31 01:13:59;;;;;;;1.33;0.95;;;;;;;;;;5063556;27;93116;-80
2023/05/31 01:16:35;;;;;;;1.38;1.00;;;;;;;;;;5063861;27;91502;-79
2023/05/31 01:19:06;;;;;;;1.77;0.93;;;;;;;;;;5066537;27;95266;-80
2023/05/31 01:21:44;;;;;;;1.60;1.00;;;;;;;;;;5073270;27;92099;-80
2023/05/31 01:24:30;;;;;;;1.25;0.77;;;;;;;;;;5072101;27;94599;-80
2023/05/31 01:26:59;;;;;;;1.80;0.90;;;;;;;;;;5063894;27;95588;-79
2023/05/31 01:29:26;;;;;;;1.35;0.80;;;;;;;;;;5064098;27;92076;-80
2023/05/31 01:31:54;;;;;;;1.83;0.90;;;;;;;;;;5063195;27;92644;-80
2023/05/31 01:34:21;;;;;;;2.08;1.00;;;;;;;;;;5071435;27;95434;-80
2023/05/31 01:36:48;;;;;;;1.13;0.80;;;;;;;;;;5060908;27;92405;-79
2023/05/31 01:39:15;;;;;;;1.25;0.80;;;;;;;;;;5077491;27;95032;-80
2023/05/31 01:41:43;;;;;;;1.80;0.85;;;;;;;;;;5084951;27;92017;-80
2023/05/31 01:44:10;;;;;;;1.40;0.80;;;;;;;;;;5071744;27;94186;-80
2023/05/31 01:46:38;;;;;;;1.55;1.05;;;;;;;;;;5082847;27;92670;-80
2023/05/31 01:49:04;;;;;;;;;;;;;;;;;;5082480;27;94420;-80
2023/05/31 01:51:32;;;;;;;1.45;0.95;;;;;;;;;;5083441;27;123093;-80
2023/05/31 01:53:59;;;;;;;1.60;0.90;;;;;;;;;;5078311;27;92745;-79
2023/05/31 01:56:28;;;;;;;1.15;0.90;;;;;;;;;;5070970;27;92085;-80
2023/05/31 01:58:55;;;;;;;1.92;0.90;;;;;;;;;;5074692;27;92376;-79
2023/05/31 02:01:22;;;;;;;1.27;1.00;;;;;;;;;;5075282;27;95255;-79
2023/05/31 02:03:51;;;;;;;1.60;1.00;;;;;;;;;;5066039;27;92310;-80
2023/05/31 02:06:17;;;;;;;1.73;0.90;;;;;;;;;;5070737;27;92306;-80
2023/05/31 02:08:44;;;;;;;1.80;0.80;;;;;;;;;;5081402;27;92121;-79
2023/05/31 02:11:11;;;;;;;1.33;0.95;;;;;;;;;;5060444;27;94242;-78
2023/05/31 02:13:37;;;;;;;2.28;1.00;;;;;;;;;;5077903;27;95235;-79
2023/05/31 02:16:04;;;;;;;1.48;1.00;;;;;;;;;;5073105;27;91987;-78
2023/05/31 02:18:30;;;;;;;1.25;1.00;;;;;;;;;;5074597;27;94903;-78
2023/05/31 02:20:57;;;;;;;2.22;1.00;;;;;;;;;;5060321;27;95464;-78
2023/05/31 02:23:23;;;;;;;2.30;0.90;;;;;;;;;;5061292;27;92436;-79
2023/05/31 02:25:50;;;;;;;1.60;0.98;;;;;;;;;;5047095;27;94941;-79
2023/05/31 02:28:17;;;;;;;2.15;1.00;;;;;;;;;;5060670;27;93598;-79
2023/05/31 02:30:53;;;;;;;1.95;0.80;;;;;;;;;;5062428;27;92734;-79
2023/05/31 02:33:20;;;;;;;1.45;1.00;;;;;;;;;;5067003;27;92695;-79
2023/05/31 02:35:47;;;;;;;1.77;1.05;;;;;;;;;;5080650;27;92160;-79
2023/05/31 02:38:13;;;;;;;1.10;0.90;;;;;;;;;;5078178;27;95421;-79
2023/05/31 02:40:42;;;;;;;1.80;1.00;;;;;;;;;;5080453;27;93761;-79
2023/05/31 02:43:10;;;;;;;1.77;0.90;;;;;;;;;;5081183;27;92000;-79
2023/05/31 02:45:37;;;;;;;2.25;1.10;;;;;;;;;;5070370;27;94893;-79
2023/05/31 02:48:05;;;;;;;1.63;1.10;;;;;;;;;;5066616;27;95041;-79
2023/05/31 02:50:32;;;;;;;1.35;0.90;;;;;;;;;;5080777;27;92456;-79
2023/05/31 02:53:00;;;;;;;2.03;1.00;;;;;;;;;;5063200;27;94879;-78
2023/05/31 02:55:33;;;;;;;2.42;1.08;;;;;;;;;;5081167;27;91379;-80
2023/05/31 02:58:18;;;;;;;1.02;0.80;;;;;;;;;;5073053;27;92120;-79
2023/05/31 03:01:07;;;;;;;1.70;0.95;;;;;;;;;;5051793;27;97475;-79
2023/05/31 03:03:41;;;;;;;2.13;1.00;;;;;;;;;;5066929;27;94948;-79
2023/05/31 03:06:20;;;;;;;1.60;1.00;;;;;;;;;;5065148;27;97678;-79
2023/05/31 03:08:47;;;;;;;1.95;1.00;;;;;;;;;;5079726;27;94890;-80
2023/05/31 03:11:13;;;;;;;1.92;1.10;;;;;;;;;;5083281;27;91989;-79
2023/05/31 03:13:40;;;;;;;1.45;0.82;;;;;;;;;;5073362;27;95142;-79
2023/05/31 03:16:06;;;;;;;2.05;0.90;;;;;;;;;;5076308;27;92315;-79
2023/05/31 03:18:33;;;;;;;1.40;1.10;;;;;;;;;;5060188;27;94519;-79
2023/05/31 03:21:00;;;;;;;1.77;1.00;;;;;;;;;;5059991;27;94028;-79
2023/05/31 03:23:27;;;;;;;2.35;1.10;;;;;;;;;;5060252;27;93466;-79
2023/05/31 03:25:53;;;;;;;2.22;1.00;;;;;;;;;;5068791;27;94036;-79
2023/05/31 03:28:20;;;;;;;2.13;1.00;;;;;;;;;;5078764;27;97914;-79
2023/05/31 03:30:46;;;;;;;2.00;1.00;;;;;;;;;;5063995;27;92260;-80
2023/05/31 03:33:13;;;;;;;1.15;0.90;;;;;;;;;;5063873;27;95076;-81
2023/05/31 03:35:40;;;;;;;1.42;0.93;;;;;;;;;;5063294;27;92164;-79
2023/05/31 03:38:07;;;;;;;1.58;0.90;;;;;;;;;;5080170;27;94627;-78
2023/05/31 03:40:34;;;;;;;1.30;0.90;;;;;;;;;;5080212;27;93957;-78
2023/05/31 03:43:00;;;;;;;1.85;0.90;;;;;;;;;;5079769;27;92170;-78
2023/05/31 03:45:27;;;;;;;2.85;1.00;;;;;;;;;;5065869;27;95170;-78
2023/05/31 03:47:54;;;;;;;1.42;0.90;;;;;;;;;;5065737;27;94472;-79
2023/05/31 03:50:21;;;;;;;2.65;1.10;;;;;;;;;;5080172;27;92136;-80
2023/05/31 03:52:47;;;;;;;2.35;1.00;;;;;;;;;;5068368;27;94614;-79
2023/05/31 03:55:14;;;;;;;2.13;0.90;;;;;;;;;;5081421;27;92163;-79
2023/05/31 03:57:40;;;;;;;1.65;1.02;;;;;;;;;;5075416;27;95245;-79
2023/05/31 04:00:10;;;;;;;2.15;1.00;;;;;;;;;;5071662;27;95271;-79
2023/05/31 04:02:46;;;;;;;2.38;1.00;;;;;;;;;;5057932;27;92187;-79
2023/05/31 04:05:29;;;;;;;1.65;1.02;;;;;;;;;;5066397;27;93148;-78
2023/05/31 04:07:56;;;;;;;2.33;0.95;;;;;;;;;;5079195;27;95382;-79
2023/05/31 04:10:22;;;;;;;2.08;1.00;;;;;;;;;;5065054;27;91440;-80
2023/05/31 04:12:49;;;;;;;1.75;1.00;;;;;;;;;;5060117;27;93513;-80
2023/05/31 04:15:15;;;;;;;2.22;1.00;;;;;;;;;;5080651;27;92111;-79
2023/05/31 04:17:42;;;;;;;1.75;0.90;;;;;;;;;;5061118;27;94779;-79
2023/05/31 04:20:09;;;;;;;1.35;0.90;;;;;;;;;;5062254;27;92572;-79
2023/05/31 04:22:36;;;;;;;;;;;;;;;;;;5062427;27;92714;-79
2023/05/31 04:25:02;;;;;;;2.80;1.10;;;;;;;;;;5060984;27;107183;-79
2023/05/31 04:27:38;;;;;;;1.60;1.00;;;;;;;;;;5066224;27;95320;-79
2023/05/31 04:30:05;;;;;;;1.67;0.90;;;;;;;;;;5072694;27;92118;-80
2023/05/31 04:32:36;;;;;;;1.67;1.00;;;;;;;;;;5065766;27;94245;-79
2023/05/31 04:35:04;;;;;;;2.13;1.00;;;;;;;;;;5059280;27;99298;-79
2023/05/31 04:37:33;;;;;;;2.05;0.90;;;;;;;;;;5085654;27;92568;-78
2023/05/31 04:40:05;;;;;;;2.38;1.10;;;;;;;;;;5082384;27;94323;-79
2023/05/31 04:42:32;;;;;;;2.30;1.20;;;;;;;;;;5074841;27;94540;-79
2023/05/31 04:45:01;;;;;;;2.08;1.05;;;;;;;;;;5051148;27;94827;-79
2023/05/31 04:47:35;;;;;;;1.90;1.10;;;;;;;;;;5076013;27;94907;-79
2023/05/31 04:50:02;;;;;;;2.38;0.98;;;;;;;;;;5067441;27;92192;-79
2023/05/31 04:52:30;;;;;;;2.47;1.00;;;;;;;;;;5080415;27;95156;-79
2023/05/31 04:54:58;;;;;;;2.65;1.10;;;;;;;;;;5060588;27;95821;-79
2023/05/31 04:57:26;;;;;;;2.47;1.08;;;;;;;;;;5081534;27;92124;-79
2023/05/31 04:59:58;;;;;;;2.13;1.10;;;;;;;;;;5070598;27;95228;-79
2023/05/31 05:02:26;;;;;;;1.90;1.10;;;;;;;;;;5061383;27;92126;-79
2023/05/31 05:04:53;;;;;;;2.10;0.98;;;;;;;;;;5062875;27;92206;-79
2023/05/31 05:07:21;;;;;;;2.53;1.10;;;;;;;;;;5076690;27;97366;-80
2023/05/31 05:09:48;;;;;;;1.98;1.02;;;;;;;;;;5054997;27;92043;-79
2023/05/31 05:12:15;;;;;;;2.60;1.10;;;;;;;;;;5071708;27;95553;-79
2023/05/31 05:14:43;;;;;;;1.95;0.90;;;;;;;;;;5064317;27;95362;-80
2023/05/31 05:17:10;;;;;;;2.35;1.00;;;;;;;;;;5063543;27;92037;-80
2023/05/31 05:19:37;;;;;;;2.03;1.20;;;;;;;;;;5084604;27;95043;-80
2023/05/31 05:22:03;;;;;;;1.92;0.93;;;;;;;;;;5078223;27;92374;-80
2023/05/31 05:24:30;;;;;;;1.75;1.10;;;;;;;;;;5071522;27;94922;-80
2023/05/31 05:26:58;;;;;;;2.22;1.10;;;;;;;;;;5076094;27;95392;-80
2023/05/31 05:29:25;;;;;;;1.08;0.90;;;;;;;;;;5077349;27;92314;-80
2023/05/31 05:31:52;;;;;;;2.78;1.10;;;;;;;;;;5074137;27;94556;-80
2023/05/31 05:34:22;;;;;;;2.00;1.20;;;;;;;;;;5078391;27;94741;-80
2023/05/31 05:36:49;;;;;;;2.35;1.00;;;;;;;;;;5070349;27;92519;-80
2023/05/31 05:39:16;;;;;;;2.80;1.25;;;;;;;;;;5079454;27;92774;-80
2023/05/31 05:41:44;;;;;;;2.08;1.10;;;;;;;;;;5084067;27;95578;-80
2023/05/31 05:44:11;;;;;;;1.67;1.10;;;;;;;;;;5064631;27;94223;-80
2023/05/31 05:46:37;;;;;;;3.15;1.10;;;;;;;;;;5070024;27;95864;-80
2023/05/31 05:49:04;;;;;;;2.25;1.20;;;;;;;;;;5067266;27;91481;-80
2023/05/31 05:51:31;;;;;;;1.85;1.08;;;;;;;;;;5070183;27;92069;-80
2023/05/31 05:54:03;;;;;;;2.63;1.05;;;;;;;;;;5081608;27;93705;-80
2023/05/31 05:56:29;;;;;;;2.58;1.20;;;;;;;;;;5075589;27;94980;-80
2023/05/31 05:58:59;;;;;;;2.35;1.05;;;;;;;;;;5080291;27;97180;-80
2023/05/31 06:01:44;;;;;;;2.25;1.13;;;;;;;;;;5070312;27;92331;-80
2023/05/31 06:04:13;;;;;;;3.42;1.27;;;;;;;;;;5066663;27;92447;-80
2023/05/31 06:06:41;;;;;;;1.73;1.00;;;;;;;;;;5076219;27;94735;-80
2023/05/31 06:09:09;;;;;;;2.33;1.17;;;;;;;;;;5082566;27;92013;-80
2023/05/31 06:11:36;;;;;;;2.35;1.10;;;;;;;;;;5078508;27;95495;-80
2023/05/31 06:14:03;;;;;;;2.83;1.33;;;;;;;;;;5065014;27;92887;-80
2023/05/31 06:16:36;;;;;;;3.63;1.23;;;;;;;;;;5074289;27;91995;-80
2023/05/31 06:19:03;;;;;;;2.05;1.20;;;;;;;;;;5075059;27;99329;-79
2023/05/31 06:21:29;;;;;;;2.40;1.20;;;;;;;;;;5057995;27;97879;-79
2023/05/31 06:23:56;;;;;;;2.53;1.33;;;;;;;;;;5042975;27;92116;-80
2023/05/31 06:26:23;;;;;;;2.58;1.17;;;;;;;;;;5062526;27;94416;-79
2023/05/31 06:28:50;;;;;;;2.28;1.20;;;;;;;;;;5059252;27;92054;-79
2023/05/31 06:31:36;;;;;;;1.98;1.20;;;;;;;;;;5060236;27;92475;-80
2023/05/31 06:34:02;;;;;;;1.70;1.00;;;;;;;;;;5058419;27;95238;-80
2023/05/31 06:36:29;;;;;;;2.15;1.08;;;;;;;;;;5060143;27;92235;-81
2023/05/31 06:38:56;;;;;;;2.35;1.20;;;;;;;;;;5058267;27;94682;-79
2023/05/31 06:41:23;;;;;;;2.50;1.30;;;;;;;;;;5061435;27;93600;-79
2023/05/31 06:43:49;;;;;;;1.83;1.02;;;;;;;;;;5077640;27;92162;-80
2023/05/31 06:46:16;;;;;;;2.75;1.10;;;;;;;;;;5059619;27;94719;-81
2023/05/31 06:49:05;;;;;;;1.77;1.00;;;;;;;;;;5050119;27;97265;-80
2023/05/31 06:52:07;;;;;;;3.10;1.20;;;;;;;;;;5080727;27;93452;-79
2023/05/31 06:54:54;;;;;;;2.13;1.10;;;;;;;;;;5030358;27;92869;-82
2023/05/31 06:57:21;;;;;;;2.13;1.30;;;;;;;;;;5072083;27;92268;-81
2023/05/31 06:59:48;;;;;;;2.33;1.20;;;;;;;;;;5061312;27;92483;-80
2023/05/31 07:02:15;;;;;;;1.85;1.10;;;;;;;;;;5057728;27;95582;-80
2023/05/31 07:04:42;;;;;;;3.75;1.30;;;;;;;;;;5059242;27;92628;-79
2023/05/31 07:07:12;;;;;;;2.42;1.27;;;;;;;;;;5042275;27;93597;-80
2023/05/31 07:09:39;;;;;;;3.22;2.75;;;;;;;;;;5059503;27;95066;-82
2023/05/31 07:12:06;;;;;;;2.53;1.20;;;;;;;;;;5054140;27;94886;-81
2023/05/31 07:14:33;;;;;;;2.97;1.40;;;;;;;;;;5063194;27;94878;-80
2023/05/31 07:17:00;;;;;;;3.63;1.13;;;;;;;;;;5059672;27;92213;-80
2023/05/31 07:19:27;;;;;;;;;;;;;;;;;;5059585;27;95400;-81
2023/05/31 07:21:53;;;;;;;2.83;1.30;;;;;;;;;;5061747;27;102350;-82
2023/05/31 07:24:20;;;;;;;1.60;1.10;;;;;;;;;;5059549;27;92160;-81
2023/05/31 07:26:46;;;;;;;3.08;1.25;;;;;;;;;;5073530;27;92271;-82
2023/05/31 07:29:13;;;;;;;2.83;1.30;;;;;;;;;;5079164;27;91886;-82
2023/05/31 07:31:39;;;;;;;2.65;1.25;;;;;;;;;;5074997;27;92147;-82
2023/05/31 07:34:06;;;;;;;4.20;1.55;;;;;;;;;;5076256;27;94029;-82
2023/05/31 07:36:33;;;;;;;3.45;1.50;;;;;;;;;;5075543;27;94453;-82
2023/05/31 07:38:59;;;;;;;3.60;1.33;;;;;;;;;;5079242;27;97797;-82
2023/05/31 07:41:27;;;;;;;3.72;1.40;;;;;;;;;;5071539;27;92670;-81
2023/05/31 07:43:54;;;;;;;2.67;1.20;;;;;;;;;;5068112;27;92032;-81
2023/05/31 07:46:21;;;;;;;3.78;1.20;;;;;;;;;;5073348;27;92731;-81
2023/05/31 07:48:48;;;;;;;3.22;1.48;;;;;;;;;;5060369;27;93159;-81
2023/05/31 07:51:15;;;;;;;3.40;1.48;;;;;;;;;;5063841;27;92357;-82
2023/05/31 07:53:41;;;;;;;4.18;1.40;;;;;;;;;;5067833;27;92339;-81
2023/05/31 07:56:08;;;;;;;2.58;1.30;;;;;;;;;;5082321;27;92154;-81
2023/05/31 07:58:35;;;;;;;4.15;1.40;;;;;;;;;;5083255;27;92708;-82
2023/05/31 08:01:02;;;;;;;2.92;1.35;;;;;;;;;;5067489;27;97984;-82
2023/05/31 08:03:30;;;;;;;4.25;1.48;;;;;;;;;;5064381;27;92295;-82
2023/05/31 08:05:57;;;;;;;2.78;1.38;;;;;;;;;;5063904;27;92129;-82
2023/05/31 08:08:23;;;;;;;3.17;1.30;;;;;;;;;;5062256;27;95667;-81
2023/05/31 08:10:50;;;;;;;2.67;1.30;;;;;;;;;;5067191;27;92089;-81
2023/05/31 08:13:17;;;;;;;3.45;1.48;;;;;;;;;;5065432;27;94672;-81
2023/05/31 08:15:43;;;;;;;4.43;1.60;;;;;;;;;;5076936;27;92746;-82
2023/05/31 08:18:10;;;;;;;2.65;1.20;;;;;;;;;;5085473;27;93010;-81
2023/05/31 08:20:37;;;;;;;3.60;1.52;;;;;;;;;;5083575;27;93501;-81
2023/05/31 08:23:03;;;;;;;3.20;1.38;;;;;;;;;;5082546;27;93842;-81
2023/05/31 08:25:30;;;;;;;4.85;1.40;;;;;;;;;;5083058;27;94780;-82
2023/05/31 08:27:56;;;;;;;3.63;1.50;;;;;;;;;;5052970;27;95549;-82
2023/05/31 08:30:23;;;;;;;4.00;1.42;;;;;;;;;;5077989;27;92288;-82
2023/05/31 08:32:49;;;;;;;3.25;1.42;;;;;;;;;;5082368;27;95232;-82
2023/05/31 08:35:16;;;;;;;3.33;1.50;;;;;;;;;;5078544;27;92691;-81
2023/05/31 08:37:43;;;;;;;3.17;1.40;;;;;;;;;;5067861;27;92744;-81
2023/05/31 08:40:09;;;;;;;3.67;1.40;;;;;;;;;;5063773;27;93006;-82
2023/05/31 08:42:42;;;;;;;2.63;1.30;;;;;;;;;;5068940;27;91277;-81
2023/05/31 08:45:10;;;;;;;3.05;1.40;;;;;;;;;;5072641;27;95625;-80
2023/05/31 08:47:43;;;;;;;3.08;1.40;;;;;;;;;;5073649;27;92762;-81
2023/05/31 08:50:10;;;;;;;3.60;1.40;;;;;;;;;;5075702;27;94698;-80
2023/05/31 08:52:37;;;;;;;4.40;1.40;;;;;;;;;;5080996;27;94408;-82
2023/05/31 08:55:04;;;;;;;3.28;1.33;;;;;;;;;;5061847;27;97170;-82
2023/05/31 08:57:31;;;;;;;3.33;1.48;;;;;;;;;;5052246;27;92315;-81
2023/05/31 08:59:58;;;;;;;3.60;1.30;;;;;;;;;;5067168;27;92351;-81
2023/05/31 09:02:25;;;;;;;3.97;1.40;;;;;;;;;;5063472;27;92204;-81
2023/05/31 09:04:51;;;;;;;2.58;1.20;;;;;;;;;;5061287;27;92271;-81
2023/05/31 09:07:18;;;;;;;2.80;1.55;;;;;;;;;;5063292;27;91970;-80
2023/05/31 09:09:44;;;;;;;4.40;1.50;;;;;;;;;;5083705;27;92194;-81
2023/05/31 09:12:11;;;;;;;3.03;1.38;;;;;;;;;;5076142;27;92648;-81
2023/05/31 09:14:38;;;;;;;2.30;1.30;;;;;;;;;;5063144;27;94777;-81
2023/05/31 09:17:04;;;;;;;2.67;1.35;;;;;;;;;;5081392;27;92070;-81
2023/05/31 09:19:31;;;;;;;2.92;1.30;;;;;;;;;;5083390;27;92776;-82
2023/05/31 09:21:57;;;;;;;3.97;1.27;;;;;;;;;;5080218;27;92621;-81
2023/05/31 09:24:24;;;;;;;3.25;1.30;;;;;;;;;;5063217;27;92944;-82
2023/05/31 09:26:52;;;;;;;2.85;1.33;;;;;;;;;;5061483;27;92672;-82
2023/05/31 09:29:19;;;;;;;;;;;;;;;;;;5075348;27;92391;-82
2023/05/31 09:31:46;;;;;;;2.28;1.30;;;;;;;;;;5070432;27;92002;-82
2023/05/31 09:34:26;;;;;;;3.83;1.40;;;;;;;;;;5075967;27;92617;-82
2023/05/31 09:36:56;;;;;;;3.53;1.40;;;;;;;;;;5082451;27;92101;-80
2023/05/31 09:39:23;;;;;;;3.95;1.42;;;;;;;;;;5060240;27;94760;-81
2023/05/31 09:41:50;;;;;;;4.22;1.60;;;;;;;;;;5076533;27;92857;-81
2023/05/31 09:44:17;;;;;;;3.03;1.27;;;;;;;;;;5082220;27;92882;-81
2023/05/31 09:46:46;;;;;;;3.33;1.50;;;;;;;;;;5062305;27;93320;-82
2023/05/31 09:49:13;;;;;;;3.33;1.23;;;;;;;;;;5078973;27;92274;-82
2023/05/31 09:51:40;;;;;;;3.40;1.40;;;;;;;;;;5062209;27;92382;-80
2023/05/31 09:54:10;;;;;;;2.20;1.23;;;;;;;;;;5060536;27;94910;-81
2023/05/31 09:56:38;;;;;;;3.00;1.50;;;;;;;;;;5068437;27;91285;-81
2023/05/31 09:59:07;;;;;;;3.05;1.50;;;;;;;;;;5073891;27;97461;-81
2023/05/31 10:01:35;;;;;;;2.35;1.23;;;;;;;;;;5060533;27;93226;-82
2023/05/31 10:04:05;;;;;;;3.13;1.38;;;;;;;;;;5063414;27;94653;-82
2023/05/31 10:06:36;;;;;;;2.05;1.20;;;;;;;;;;5077951;27;93674;-83
2023/05/31 10:09:03;;;;;;;2.55;1.30;;;;;;;;;;5082638;27;92068;-82
2023/05/31 10:11:33;;;;;;;3.25;1.38;;;;;;;;;;5059718;27;95090;-83
2023/05/31 10:14:01;;;;;;;2.78;1.20;;;;;;;;;;5060688;27;92716;-82
2023/05/31 10:16:30;;;;;;;3.28;1.38;;;;;;;;;;5062111;27;92142;-82
2023/05/31 10:19:00;;;;;;;4.93;1.52;;;;;;;;;;5071148;27;92862;-82
2023/05/31 10:21:27;;;;;;;2.55;1.20;;;;;;;;;;5066481;27;91956;-82
2023/05/31 10:23:59;;;;;;;2.88;1.40;;;;;;;;;;5061057;27;92175;-82
2023/05/31 10:26:29;;;;;;;5.55;1.60;;;;;;;;;;5067201;27;92499;-82
2023/05/31 10:29:00;;;;;;;3.60;1.42;;;;;;;;;;5079476;27;94403;-82
2023/05/31 10:31:32;;;;;;;3.88;1.40;;;;;;;;;;5070817;27;95764;-82
2023/05/31 10:34:03;;;;;;;1.98;1.10;;;;;;;;;;5077882;27;93718;-81
2023/05/31 10:36:30;;;;;;;2.25;1.40;;;;;;;;;;5070891;27;91945;-82
2023/05/31 10:39:04;;;;;;;2.63;1.40;;;;;;;;;;5081061;27;94131;-82
2023/05/31 10:41:36;;;;;;;2.67;1.30;;;;;;;;;;5081681;27;92939;-82
2023/05/31 10:44:08;;;;;;;3.03;1.27;;;;;;;;;;5063500;27;92355;-81
2023/05/31 10:46:37;;;;;;;3.17;1.30;;;;;;;;;;5061686;27;92596;-81
2023/05/31 10:49:05;;;;;;;2.35;1.30;;;;;;;;;;5064068;27;99639;-81
2023/05/31 10:51:38;;;;;;;3.10;1.30;;;;;;;;;;5060686;27;92748;-81
2023/05/31 10:54:05;;;;;;;2.90;1.20;;;;;;;;;;5059563;27;95218;-81
2023/05/31 10:56:32;;;;;;;4.85;1.75;;;;;;;;;;5066395;27;92168;-81
2023/05/31 10:58:58;;;;;;;3.97;1.30;;;;;;;;;;5072690;27;93368;-81
2023/05/31 11:01:28;;;;;;;3.40;1.20;;;;;;;;;;5074413;27;92722;-80
2023/05/31 11:03:58;;;;;;;2.50;1.33;;;;;;;;;;5073608;27;92113;-81
2023/05/31 11:06:28;;;;;;;2.78;1.23;;;;;;;;;;5059715;27;95196;-80
2023/05/31 11:09:05;;;;;;;4.07;1.60;;;;;;;;;;5060521;27;92605;-81
2023/05/31 11:11:32;;;;;;;2.38;1.27;;;;;;;;;;5073774;27;91840;-81
2023/05/31 11:14:10;;;;;;;3.55;1.27;;;;;;;;;;5046297;27;95264;-81
2023/05/31 11:19:43;;;;;;;3.20;1.27;;;;;;;;;;5042317;27;97209;-81
2023/05/31 11:22:10;;;;;;;2.95;1.42;;;;;;;;;;5042318;27;94350;-81
2023/05/31 11:24:47;;;;;;;2.05;1.20;;;;;;;;;;5074736;27;92174;-81
2023/05/31 11:27:14;;;;;;;2.90;1.20;;;;;;;;;;5064249;27;96559;-81
2023/05/31 11:29:42;;;;;;;;;;;;;;;;;;5063151;27;95236;-81
2023/05/31 11:32:09;;;;;;;3.58;1.40;;;;;;;;;;5065688;27;93945;-81
2023/05/31 11:34:48;;;;;;;3.97;1.33;;;;;;;;;;5073831;27;92736;-82
2023/05/31 11:37:14;;;;;;;3.95;1.40;;;;;;;;;;5081432;27;92290;-82
2023/05/31 11:39:44;;;;;;;2.72;1.40;;;;;;;;;;5072211;27;92279;-82
2023/05/31 11:42:12;;;;;;;2.85;1.30;;;;;;;;;;5063838;27;93083;-82
2023/05/31 11:44:45;;;;;;;3.38;1.40;;;;;;;;;;5077918;27;94449;-81
2023/05/31 11:47:25;;;;;;;2.70;1.30;;;;;;;;;;5078795;27;95178;-81
2023/05/31 11:49:52;;;;;;;3.00;1.40;;;;;;;;;;5083323;27;94689;-81
2023/05/31 11:52:20;;;;;;;4.22;1.40;;;;;;;;;;5083431;27;92121;-82
2023/05/31 11:54:48;;;;;;;2.67;1.38;;;;;;;;;;5085477;27;94875;-81
2023/05/31 11:57:20;;;;;;;3.97;1.35;;;;;;;;;;5078856;27;92217;-82
2023/05/31 11:59:46;;;;;;;3.22;1.35;;;;;;;;;;5068480;27;92415;-82
2023/05/31 12:02:13;;;;;;;3.03;1.50;;;;;;;;;;5063078;27;94037;-81
2023/05/31 12:04:41;;;;;;;2.97;1.45;;;;;;;;;;5062306;27;92561;-81
2023/05/31 12:07:12;;;;;;;2.85;1.33;;;;;;;;;;5062518;27;95506;-82
2023/05/31 12:09:39;;;;;;;3.28;1.40;;;;;;;;;;5062464;27;95158;-81
2023/05/31 12:12:05;;;;;;;3.30;1.45;;;;;;;;;;5072577;27;92302;-81
2023/05/31 12:14:32;;;;;;;4.30;1.50;;;;;;;;;;5074665;27;94973;-81
2023/05/31 12:17:03;;;;;;;4.35;1.50;;;;;;;;;;5082992;27;92521;-82
2023/05/31 12:19:30;;;;;;;3.45;1.52;;;;;;;;;;5082139;27;92464;-80
2023/05/31 12:21:57;;;;;;;4.25;1.60;;;;;;;;;;5061470;27;99362;-81
2023/05/31 12:24:24;;;;;;;3.65;1.45;;;;;;;;;;5073375;27;92000;-81
2023/05/31 12:26:54;;;;;;;2.67;1.30;;;;;;;;;;5082411;27;92386;-80
2023/05/31 12:29:26;;;;;;;2.05;1.30;;;;;;;;;;5063878;27;93289;-81
2023/05/31 12:32:00;;;;;;;2.72;1.50;;;;;;;;;;5063653;27;93990;-81
2023/05/31 12:34:28;;;;;;;3.58;1.35;;;;;;;;;;5069897;27;95470;-81
2023/05/31 12:36:54;;;;;;;2.22;1.27;;;;;;;;;;5067713;27;92641;-81
2023/05/31 12:39:24;;;;;;;2.72;1.30;;;;;;;;;;5076126;27;92111;-81
2023/05/31 12:41:51;;;;;;;3.08;1.50;;;;;;;;;;5082216;27;92842;-81
2023/05/31 12:44:21;;;;;;;3.55;1.52;;;;;;;;;;5064914;27;93530;-81
2023/05/31 12:46:49;;;;;;;3.08;1.50;;;;;;;;;;5063011;27;92201;-80
2023/05/31 12:49:29;;;;;;;3.88;1.42;;;;;;;;;;5061778;27;93702;-81
2023/05/31 12:52:01;;;;;;;3.60;1.50;;;;;;;;;;5063639;27;91297;-81
2023/05/31 12:54:28;;;;;;;4.70;1.50;;;;;;;;;;5063709;27;91960;-81
2023/05/31 12:56:55;;;;;;;4.53;1.45;;;;;;;;;;5072625;27;93041;-80
2023/05/31 12:59:22;;;;;;;2.88;1.50;;;;;;;;;;5080162;27;94605;-80
2023/05/31 13:01:49;;;;;;;3.15;1.45;;;;;;;;;;5079747;27;96866;-80
2023/05/31 13:04:15;;;;;;;3.60;1.40;;;;;;;;;;5074175;27;92033;-81
2023/05/31 13:06:43;;;;;;;2.50;1.40;;;;;;;;;;5081484;27;92189;-81
2023/05/31 13:09:09;;;;;;;3.47;1.40;;;;;;;;;;5074143;27;92596;-81
2023/05/31 13:11:36;;;;;;;3.25;1.65;;;;;;;;;;5072218;27;92341;-81
2023/05/31 13:14:03;;;;;;;3.05;1.40;;;;;;;;;;5067397;27;92510;-81
2023/05/31 13:16:31;;;;;;;3.63;1.48;;;;;;;;;;5075458;27;92308;-81
2023/05/31 13:18:58;;;;;;;4.50;1.65;;;;;;;;;;5081407;27;92187;-81
2023/05/31 13:21:25;;;;;;;;;;;;;;;;;;5083683;27;92381;-81
2023/05/31 13:23:51;;;;;;;3.65;1.60;;;;;;;;;;5080380;27;120304;-81
2023/05/31 13:26:18;;;;;;;3.88;1.60;;;;;;;;;;5081748;27;95063;-81
2023/05/31 13:28:45;;;;;;;3.97;1.70;;;;;;;;;;5081206;27;92879;-80
2023/05/31 13:31:11;;;;;;;3.50;1.52;;;;;;;;;;5066657;27;92148;-80
2023/05/31 13:33:38;;;;;;;2.92;1.40;;;;;;;;;;5071799;27;92130;-79
2023/05/31 13:36:05;;;;;;;2.22;1.35;;;;;;;;;;5061163;27;95649;-80
2023/05/31 13:38:32;;;;;;;2.47;1.40;;;;;;;;;;5062509;27;92263;-80
2023/05/31 13:40:58;;;;;;;3.33;1.50;;;;;;;;;;5061198;27;93361;-80
2023/05/31 13:43:25;;;;;;;3.13;1.30;;;;;;;;;;5060748;27;93096;-81
2023/05/31 13:45:52;;;;;;;3.60;1.50;;;;;;;;;;5063742;27;92062;-82
2023/05/31 13:48:18;;;;;;;2.50;1.50;;;;;;;;;;5058799;27;96865;-82
2023/05/31 13:50:45;;;;;;;3.05;1.60;;;;;;;;;;5061348;27;92225;-81
2023/05/31 13:53:12;;;;;;;3.33;1.50;;;;;;;;;;5062140;27;92596;-81
2023/05/31 13:55:38;;;;;;;3.25;1.50;;;;;;;;;;5062942;27;93523;-82
2023/05/31 13:58:09;;;;;;;3.70;1.60;;;;;;;;;;5063132;27;92237;-81
2023/05/31 14:00:36;;;;;;;2.67;1.20;;;;;;;;;;5073660;27;92488;-81
2023/05/31 14:03:11;;;;;;;3.22;1.70;;;;;;;;;;5061697;27;97991;-82
2023/05/31 14:05:39;;;;;;;3.08;1.50;;;;;;;;;;5084951;27;91747;-82
2023/05/31 14:08:06;;;;;;;3.72;1.50;;;;;;;;;;5081533;27;93017;-81
2023/05/31 14:10:33;;;;;;;3.88;1.58;;;;;;;;;;5065218;27;92272;-82
2023/05/31 14:12:59;;;;;;;4.03;1.60;;;;;;;;;;5075237;27;94826;-81
2023/05/31 14:15:26;;;;;;;3.22;1.50;;;;;;;;;;5077077;27;92666;-82
2023/05/31 14:17:52;;;;;;;2.95;1.50;;;;;;;;;;5062029;27;92091;-82
2023/05/31 14:20:19;;;;;;;3.35;1.50;;;;;;;;;;5057711;27;94343;-82
2023/05/31 14:22:46;;;;;;;3.33;1.40;;;;;;;;;;5079437;27;92747;-82
2023/05/31 14:25:12;;;;;;;3.63;1.75;;;;;;;;;;5082478;27;98346;-82
2023/05/31 14:27:39;;;;;;;3.53;1.73;;;;;;;;;;5078292;27;92402;-81
2023/05/31 14:30:06;;;;;;;2.60;1.50;;;;;;;;;;5062278;27;91498;-82
2023/05/31 14:32:33;;;;;;;2.70;1.55;;;;;;;;;;5062059;27;91960;-82
2023/05/31 14:35:00;;;;;;;3.40;1.58;;;;;;;;;;5067871;27;94777;-82
2023/05/31 14:37:26;;;;;;;;;;;;;;;;;;5078469;27;94508;-81
2023/05/31 14:39:57;;;;;;;2.67;1.48;;;;;;;;;;5083138;27;118375;-82
2023/05/31 14:42:24;;;;;;;3.63;1.48;;;;;;;;;;5080280;27;92671;-82
2023/05/31 14:44:50;;;;;;;3.35;1.65;;;;;;;;;;5075615;27;92028;-82
2023/05/31 14:47:17;;;;;;;3.80;1.60;;;;;;;;;;5059433;27;95083;-82
2023/05/31 14:49:43;;;;;;;3.67;1.60;;;;;;;;;;5065018;27;92692;-82
2023/05/31 14:52:10;;;;;;;3.10;1.50;;;;;;;;;;5060393;27;92371;-81
2023/05/31 14:54:36;;;;;;;2.67;1.40;;;;;;;;;;5060425;27;94954;-82
2023/05/31 14:57:03;;;;;;;2.85;1.30;;;;;;;;;;5072552;27;92058;-82